Ottumwa, IA

4:10 PM CDT on March 27, 2015 (GMT -0500)
Pella Municipal | | Change Station
CLOSE
Current Station
Airport
Location: Pella,
Elevation: 886 ft
Nearby Weather Stations

Elev 886 ft 41.40 °N, 92.94 °W | Updated 15 minutes ago

Clear
Clear
40 °F
Feels Like 36 °F
N
6
Wind Variable Wind from NE

Today
High -- | Low -- °F
--% Chance of Precip.
Yesterday
High -- | Low -- °F
Precip. -- in
7:01 AM 7:29 PM
First Quarter, 56% visible
Pressure 30.18 in
Visibility 10.0 miles
Clouds Clear
Windchill 36 °F
Dew Point 15 °F
Humidity 36%
Rainfall 0.00 in
Snow Depth Not available.
UV 5 out of 12
Pollen 3.70 out of 12
Air Quality Not available.
Flu Activity Not available.
METAR KPEA 272055Z AUTO 04005KT 10SM CLR 05/M09 A3018 RMK AO2 T00461095

More Conditions Fewer Conditions

Pressure 30.18 in
Visibility 10.0 miles
Clouds Clear
Windchill 36 °F
Dew Point 15 °F
Humidity 36%
Rainfall 0.00 in
Snow Depth Not available.
UV 5 out of 12
Pollen 3.70 out of 12
Air Quality Not available.
Flu Activity Not available.
METAR KPEA 272055Z AUTO 04005KT 10SM CLR 05/M09 A3018 RMK AO2 T00461095

More Conditions Fewer Conditions

10-Day Weather Forecast

Almanac

Astronomy

Mar. 27, 2015 Rise Set
Actual Time
Civil Twilight
Nautical Twilight
Astronomical Twilight
Moon
Length of Visible Light
Length of Day
Tomorrow will be .
, % of the Moon is Illuminated

Today's Extremes

State Highs State Lows

Community

WunderPhotos

Upload Photos

1,808,826 photos uploaded!

WunderBlogs® & News

Nearby

Air Quality

  Air Quality AQ Index Pollutant
Not available.

Snow Depth

Station Depth Elevation

Earthquake Activity

City Distance Mag. Time & Date
Minimum magnitude displayed is 2.5.

Coastal Water Temperatures

Place Temperature

Stations

Nearby Weather Stations

Station Location Temp. Windchill Dew Point Humidity Wind Precip. Elev Updated Type